Time;durP1;ratioP1;P1;durP2;ratioP2;P2;SDS_P1;SDS_P2;PMS_P1;PMS_P2;Temp;Humidity;BMP_temperature;BMP_pressure;BME280_temperature;BME280_humidity;BME280_pressure;Samples;Min_cycle;Max_cycle;Signal;HPM_P1;HPM_P2
2022/09/22 00:00:08;;;;;;;3.65;0.43;;;;;;;7.69;100.00;101637.09;5038843;28;20031;-48
2022/09/22 00:02:33;;;;;;;1.05;0.68;;;;;;;7.66;100.00;101642.66;5034966;28;20116;-51
2022/09/22 00:04:59;;;;;;;0.95;0.60;;;;;;;7.58;100.00;101638.09;5036143;28;20029;-49
2022/09/22 00:07:24;;;;;;;0.60;0.43;;;;;;;7.55;100.00;101648.13;5036966;28;20028;-53
2022/09/22 00:09:49;;;;;;;1.58;0.90;;;;;;;7.52;100.00;101640.50;5032804;28;20053;-48
2022/09/22 00:12:15;;;;;;;1.45;0.57;;;;;;;7.46;100.00;101641.91;5033823;28;20033;-50
2022/09/22 00:14:40;;;;;;;0.88;0.55;;;;;;;7.40;100.00;101640.63;5032794;28;20094;-54
2022/09/22 00:17:06;;;;;;;0.52;0.50;;;;;;;7.38;100.00;101647.03;5031907;28;20017;-52
2022/09/22 00:19:36;;;;;;;1.38;0.80;;;;;;;7.38;100.00;101644.38;5029622;28;20476;-54
2022/09/22 00:22:03;;;;;;;1.25;0.55;;;;;;;7.38;100.00;101641.75;5041033;28;20025;-55
2022/09/22 00:24:30;;;;;;;2.13;0.93;;;;;;;7.38;100.00;101639.09;5043183;28;20033;-50
2022/09/22 00:26:57;;;;;;;1.27;0.60;;;;;;;7.35;100.00;101636.75;5039602;28;20478;-51
2022/09/22 00:29:23;;;;;;;2.20;0.95;;;;;;;7.30;100.00;101639.00;5039446;28;20133;-53
2022/09/22 00:31:49;;;;;;;1.90;1.13;;;;;;;7.19;100.00;101639.97;5039537;28;20078;-48
2022/09/22 00:34:18;;;;;;;2.60;0.73;;;;;;;7.09;100.00;101637.34;5036935;28;20123;-48
2022/09/22 00:36:44;;;;;;;0.85;0.85;;;;;;;7.03;100.00;101634.44;5036487;28;20025;-50
2022/09/22 00:39:09;;;;;;;1.17;0.75;;;;;;;6.98;100.00;101635.69;5040602;28;20493;-48
2022/09/22 00:41:39;;;;;;;1.17;0.43;;;;;;;6.96;100.00;101634.16;5035236;28;20034;-48
2022/09/22 00:44:17;;;;;;;0.77;0.43;;;;;;;6.94;100.00;101626.41;5035691;28;20036;-50
2022/09/22 00:46:44;;;;;;;1.95;0.70;;;;;;;6.93;100.00;101627.34;5039822;28;20037;-49
2022/09/22 00:49:11;;;;;;;1.20;1.13;;;;;;;6.90;100.00;101626.81;5030989;28;20040;-48
2022/09/22 00:51:40;;;;;;;1.17;0.85;;;;;;;6.84;100.00;101628.22;5038414;28;20124;-50
2022/09/22 00:54:09;;;;;;;3.83;0.98;;;;;;;6.75;100.00;101621.94;5034443;28;20034;-48
2022/09/22 00:56:46;;;;;;;0.73;0.40;;;;;;;6.74;100.00;101622.94;5034690;28;20059;-49
2022/09/22 00:59:15;;;;;;;1.20;0.80;;;;;;;6.66;100.00;101614.88;5034597;28;20087;-49
2022/09/22 01:01:41;;;;;;;2.13;1.08;;;;;;;6.59;100.00;101623.47;5033542;28;20021;-49
2022/09/22 01:04:07;;;;;;;1.60;0.60;;;;;;;6.57;100.00;101614.88;5037097;28;20428;-48
2022/09/22 01:06:36;;;;;;;1.58;0.73;;;;;;;6.56;100.00;101603.50;5041732;28;20035;-49
2022/09/22 01:09:02;;;;;;;0.70;0.60;;;;;;;6.51;100.00;101611.81;5032976;28;20079;-49
2022/09/22 01:11:28;;;;;;;2.78;0.52;;;;;;;6.47;100.00;101601.66;5034497;28;20025;-52
2022/09/22 01:14:21;;;;;;;0.95;0.80;;;;;;;6.41;100.00;101592.50;5028525;28;20118;-55
2022/09/22 01:17:01;;;;;;;2.03;0.35;;;;;;;6.37;100.00;101600.81;5030837;28;20103;-49
2022/09/22 01:20:04;;;;;;;1.77;0.40;;;;;;;6.31;100.00;101602.19;5036408;28;20026;-53
2022/09/22 01:23:07;;;;;;;0.57;0.50;;;;;;;6.29;100.00;101598.88;5033348;28;20041;-52
2022/09/22 01:25:48;;;;;;;2.70;0.82;;;;;;;6.24;100.00;101604.53;5024390;28;20042;-49
2022/09/22 01:28:28;;;;;;;1.85;0.47;;;;;;;6.25;100.00;101594.84;5032498;28;20490;-52
2022/09/22 01:30:58;;;;;;;6.85;0.52;;;;;;;6.25;100.00;101597.50;5029621;28;20041;-50
2022/09/22 01:33:35;;;;;;;3.72;1.17;;;;;;;6.21;100.00;101599.53;5035635;28;20026;-49
2022/09/22 01:36:15;;;;;;;2.00;0.95;;;;;;;6.15;100.00;101586.09;5038511;28;20064;-49
2022/09/22 01:38:45;;;;;;;1.85;0.65;;;;;;;6.11;100.00;101590.78;5034585;28;20382;-49
2022/09/22 01:41:37;;;;;;;0.83;0.53;;;;;;;6.11;100.00;101591.59;5032524;28;20032;-49
2022/09/22 01:44:08;;;;;;;0.85;0.85;;;;;;;6.09;100.00;101590.06;5036258;28;20469;-55
2022/09/22 01:46:36;;;;;;;;;;;;;;;6.04;100.00;101584.38;5034471;28;20529;-51
2022/09/22 01:49:07;;;;;;;0.90;0.85;;;;;;;5.99;100.00;101578.69;5035235;28;19916;-49
2022/09/22 01:51:46;;;;;;;1.58;0.88;;;;;;;5.96;100.00;101585.03;5040378;28;20016;-49
2022/09/22 01:54:34;;;;;;;0.90;0.52;;;;;;;5.90;100.00;101578.50;5035011;28;20037;-54
2022/09/22 01:57:10;;;;;;;3.30;0.82;;;;;;;5.85;100.00;101579.88;5035749;28;20045;-49
2022/09/22 01:59:39;;;;;;;1.67;1.30;;;;;;;5.79;100.00;101575.97;5030352;28;20053;-51
2022/09/22 02:02:14;;;;;;;1.33;0.75;;;;;;;5.75;100.00;101576.38;5035452;28;20437;-51
2022/09/22 02:04:49;;;;;;;1.65;1.10;;;;;;;5.69;100.00;101575.94;5025989;28;20579;-49
2022/09/22 02:07:23;;;;;;;3.38;0.50;;;;;;;5.65;100.00;101571.06;5029733;28;20103;-51
2022/09/22 02:09:49;;;;;;;2.15;0.75;;;;;;;5.64;100.00;101572.03;5027343;28;20037;-49
2022/09/22 02:12:17;;;;;;;1.45;0.55;;;;;;;5.61;100.00;101570.50;5034085;28;20037;-49
2022/09/22 02:14:43;;;;;;;1.73;0.75;;;;;;;5.61;100.00;101569.66;5035683;28;20045;-53
2022/09/22 02:17:08;;;;;;;1.27;0.60;;;;;;;5.57;100.00;101563.00;5040220;28;20482;-52
2022/09/22 02:19:39;;;;;;;1.65;0.95;;;;;;;5.55;100.00;101565.78;5039978;28;20021;-52
2022/09/22 02:22:06;;;;;;;1.10;0.75;;;;;;;5.49;100.00;101568.91;5037438;28;20064;-56
2022/09/22 02:24:36;;;;;;;1.00;0.88;;;;;;;5.48;100.00;101562.00;5040868;28;20133;-50
2022/09/22 02:27:13;;;;;;;1.38;1.02;;;;;;;5.46;100.00;101563.91;5034290;28;20076;-54
2022/09/22 02:29:48;;;;;;;0.73;0.70;;;;;;;5.44;100.00;101557.94;5035134;28;20378;-53
2022/09/22 02:32:15;;;;;;;1.13;0.80;;;;;;;5.44;100.00;101555.31;5039434;28;20416;-51
2022/09/22 02:34:44;;;;;;;1.58;0.45;;;;;;;5.40;100.00;101559.19;5029463;28;20526;-51
2022/09/22 02:37:21;;;;;;;1.17;0.35;;;;;;;5.37;100.00;101565.53;5031026;28;20371;-49
2022/09/22 02:39:55;;;;;;;1.75;1.50;;;;;;;5.32;100.00;101561.63;5032404;28;20022;-51
2022/09/22 02:42:28;;;;;;;1.58;1.17;;;;;;;5.32;100.00;101561.63;5028020;28;20380;-51
2022/09/22 02:45:12;;;;;;;2.15;0.90;;;;;;;5.36;100.00;101555.13;5033849;28;20033;-55
2022/09/22 02:47:52;;;;;;;1.15;1.02;;;;;;;5.33;100.00;101550.97;5036613;28;20029;-49
2022/09/22 02:50:21;;;;;;;1.42;0.43;;;;;;;5.29;100.00;101554.81;5034351;28;20022;-49
2022/09/22 02:52:51;;;;;;;2.92;1.10;;;;;;;5.27;100.00;101550.66;5036739;28;20160;-52
2022/09/22 02:55:16;;;;;;;1.95;1.23;;;;;;;5.21;100.00;101549.38;5034715;28;20029;-51
2022/09/22 02:57:42;;;;;;;0.43;0.32;;;;;;;5.21;100.00;101549.38;5038842;28;20030;-50
2022/09/22 03:00:08;;;;;;;2.90;0.90;;;;;;;5.19;100.00;101544.28;5038515;28;20577;-49
2022/09/22 03:02:34;;;;;;;1.20;0.80;;;;;;;5.14;100.00;101541.19;5036795;28;20021;-49
2022/09/22 03:04:59;;;;;;;2.13;0.70;;;;;;;5.11;100.00;101535.34;5040455;28;20037;-50
2022/09/22 03:07:25;;;;;;;0.93;0.50;;;;;;;5.08;100.00;101530.34;5040923;28;20033;-52
2022/09/22 03:09:50;;;;;;;1.50;0.95;;;;;;;5.05;100.00;101531.44;5036285;28;20110;-50
2022/09/22 03:12:15;;;;;;;4.45;1.52;;;;;;;5.01;100.00;101532.69;5033900;28;20044;-49
2022/09/22 03:14:41;;;;;;;0.65;0.65;;;;;;;4.97;100.00;101529.47;5037324;28;20045;-55
2022/09/22 03:17:06;;;;;;;1.40;0.63;;;;;;;4.92;100.00;101523.75;5036815;28;20060;-50
2022/09/22 03:19:32;;;;;;;1.40;1.30;;;;;;;4.90;100.00;101525.66;5037887;28;20033;-52
2022/09/22 03:21:57;;;;;;;1.00;0.82;;;;;;;4.88;100.00;101521.50;5042397;28;20395;-49
2022/09/22 03:24:22;;;;;;;1.52;0.50;;;;;;;4.87;100.00;101517.22;5040330;28;20120;-52
2022/09/22 03:26:48;;;;;;;1.55;1.15;;;;;;;4.84;100.00;101507.81;5044468;28;20124;-49
2022/09/22 03:29:13;;;;;;;2.13;1.02;;;;;;;4.83;100.00;101511.41;5036632;28;20040;-49
2022/09/22 03:31:39;;;;;;;0.73;0.73;;;;;;;4.79;100.00;101509.97;5037878;28;20033;-54
2022/09/22 03:34:04;;;;;;;1.33;0.52;;;;;;;4.78;100.00;101508.31;5035528;28;20665;-55
2022/09/22 03:36:29;;;;;;;2.63;0.80;;;;;;;4.75;100.00;101514.66;5036608;28;20029;-53
2022/09/22 03:38:55;;;;;;;1.33;0.93;;;;;;;4.76;100.00;101511.06;5030827;28;20030;-54
2022/09/22 03:41:20;;;;;;;1.35;0.77;;;;;;;4.75;100.00;101506.78;5038590;28;20138;-49
2022/09/22 03:43:46;;;;;;;3.35;1.42;;;;;;;4.74;100.00;101504.28;5036709;28;20571;-54
2022/09/22 03:46:13;;;;;;;1.83;0.95;;;;;;;4.71;100.00;101504.53;5030435;28;20112;-53
2022/09/22 03:48:38;;;;;;;1.33;1.10;;;;;;;4.73;100.00;101511.31;5036126;28;20113;-49
2022/09/22 03:51:03;;;;;;;1.95;1.17;;;;;;;4.71;100.00;101496.66;5035795;28;20538;-49
2022/09/22 03:53:29;;;;;;;1.10;0.50;;;;;;;4.69;100.00;101491.50;5037953;28;20037;-50
2022/09/22 03:56:07;;;;;;;0.90;0.70;;;;;;;4.72;100.00;101496.50;5034098;28;20034;-52
2022/09/22 03:58:32;;;;;;;4.63;0.73;;;;;;;4.73;100.00;101500.00;5036546;28;20071;-49
2022/09/22 04:00:58;;;;;;;2.03;1.25;;;;;;;4.72;100.00;101498.31;5037138;28;20017;-49
2022/09/22 04:03:23;;;;;;;1.58;0.70;;;;;;;4.71;100.00;101497.47;5037359;28;20029;-49
2022/09/22 04:05:51;;;;;;;1.58;1.05;;;;;;;4.70;100.00;101500.22;5042530;28;20025;-48
2022/09/22 04:08:17;;;;;;;1.77;1.23;;;;;;;4.68;100.00;101496.91;5042700;28;20503;-51
2022/09/22 04:10:45;;;;;;;1.75;1.38;;;;;;;4.65;100.00;101497.19;5038475;28;20055;-49
2022/09/22 04:13:12;;;;;;;2.50;1.05;;;;;;;4.60;100.00;101494.91;5038805;28;20045;-49
2022/09/22 04:15:37;;;;;;;3.53;1.13;;;;;;;4.59;100.00;101488.84;5036240;28;20043;-51
2022/09/22 04:18:03;;;;;;;2.17;1.23;;;;;;;4.57;100.00;101493.38;5037172;28;20049;-50
2022/09/22 04:20:29;;;;;;;3.75;1.98;;;;;;;4.55;100.00;101487.41;5034049;28;20104;-49
2022/09/22 04:22:54;;;;;;;1.65;1.55;;;;;;;4.52;100.00;101477.16;5034697;28;20036;-52
2022/09/22 04:25:20;;;;;;;1.77;0.80;;;;;;;4.48;100.00;101488.88;5038084;28;20486;-49
2022/09/22 04:27:45;;;;;;;4.93;1.73;;;;;;;4.47;100.00;101484.59;5035844;28;20037;-51
2022/09/22 04:30:11;;;;;;;1.45;1.00;;;;;;;4.44;100.00;101478.75;5037687;28;20021;-52
2022/09/22 04:32:36;;;;;;;5.63;1.23;;;;;;;4.43;100.00;101472.66;5036194;28;20048;-50
2022/09/22 04:35:02;;;;;;;1.73;0.55;;;;;;;4.43;100.00;101488.41;5037281;28;20740;-54
2022/09/22 04:37:27;;;;;;;1.13;0.93;;;;;;;4.42;100.00;101480.69;5040475;28;20083;-51
2022/09/22 04:39:54;;;;;;;2.20;1.35;;;;;;;4.40;100.00;101479.97;5033679;28;20052;-57
2022/09/22 04:42:19;;;;;;;0.70;0.65;;;;;;;4.39;100.00;101473.91;5040230;28;20136;-49
2022/09/22 04:44:45;;;;;;;1.98;1.23;;;;;;;4.37;100.00;101471.38;5037399;28;20116;-50
2022/09/22 04:47:11;;;;;;;3.35;1.10;;;;;;;4.39;100.00;101476.53;5033402;28;20544;-54
2022/09/22 04:49:36;;;;;;;2.28;0.85;;;;;;;4.36;100.00;101479.38;5040007;28;20100;-54
2022/09/22 04:52:03;;;;;;;1.50;1.10;;;;;;;4.34;100.00;101476.06;5031319;28;20117;-50
2022/09/22 04:54:28;;;;;;;1.60;1.42;;;;;;;4.31;100.00;101471.91;5036993;28;20474;-51
2022/09/22 04:56:54;;;;;;;1.45;1.35;;;;;;;4.32;100.00;101475.34;5043093;28;20043;-49
2022/09/22 04:59:19;;;;;;;2.83;1.25;;;;;;;4.31;100.00;101471.91;5038527;28;20025;-51
2022/09/22 05:01:44;;;;;;;2.75;1.73;;;;;;;4.31;100.00;101473.66;5032003;28;20025;-52
2022/09/22 05:04:10;;;;;;;1.60;0.82;;;;;;;4.30;100.00;101472.84;5035757;28;20025;-50
2022/09/22 05:06:35;;;;;;;3.75;3.40;;;;;;;4.32;100.00;101470.09;5039090;28;20051;-49
2022/09/22 05:09:02;;;;;;;1.75;1.23;;;;;;;4.31;100.00;101466.66;5034461;28;20037;-50
2022/09/22 05:11:29;;;;;;;1.45;1.20;;;;;;;4.32;100.00;101468.31;5039071;28;20028;-49
2022/09/22 05:13:55;;;;;;;2.40;1.83;;;;;;;4.32;100.00;101464.84;5037263;28;20518;-49
2022/09/22 05:16:22;;;;;;;1.73;1.48;;;;;;;4.31;100.00;101471.03;5035355;28;20025;-50
2022/09/22 05:18:49;;;;;;;2.42;1.80;;;;;;;4.29;100.00;101462.47;5030725;28;20382;-49
2022/09/22 05:21:16;;;;;;;0.90;0.82;;;;;;;4.27;100.00;101461.78;5042923;28;20033;-49
2022/09/22 05:23:42;;;;;;;1.88;1.23;;;;;;;4.25;100.00;101463.69;5034443;28;20156;-49
2022/09/22 05:26:07;;;;;;;1.88;1.27;;;;;;;4.24;100.00;101456.78;5038546;28;20500;-49
2022/09/22 05:28:33;;;;;;;6.28;1.70;;;;;;;4.23;100.00;101465.59;5032926;28;20033;-49
2022/09/22 05:30:58;;;;;;;6.50;2.00;;;;;;;4.19;100.00;101466.81;5032686;28;20028;-50
2022/09/22 05:33:23;;;;;;;2.38;1.30;;;;;;;4.15;100.00;101472.28;5030445;28;20112;-54
2022/09/22 05:35:49;;;;;;;2.75;1.58;;;;;;;4.15;100.00;101476.72;5042105;28;20466;-51
2022/09/22 05:38:14;;;;;;;2.25;1.55;;;;;;;4.12;100.00;101475.16;5034745;28;20463;-53
2022/09/22 05:40:39;;;;;;;2.67;1.10;;;;;;;4.10;100.00;101469.22;5037030;28;20025;-52
2022/09/22 05:43:05;;;;;;;1.90;1.48;;;;;;;4.11;100.00;101483.19;5034813;28;20112;-54
2022/09/22 05:45:30;;;;;;;3.50;2.20;;;;;;;4.12;100.00;101479.59;5033127;28;20032;-52
2022/09/22 05:47:56;;;;;;;1.40;1.13;;;;;;;4.12;100.00;101480.41;5041704;28;20389;-50
2022/09/22 05:50:22;;;;;;;3.38;1.00;;;;;;;4.11;100.00;101486.63;5038687;28;20028;-50
2022/09/22 05:52:48;;;;;;;2.22;1.80;;;;;;;4.11;100.00;101478.78;5034602;28;20034;-50
2022/09/22 05:55:14;;;;;;;2.35;1.60;;;;;;;4.13;100.00;101484.72;5042148;28;20041;-49
2022/09/22 05:57:39;;;;;;;4.90;2.58;;;;;;;4.15;100.00;101482.78;5033213;28;20621;-54
2022/09/22 06:00:06;;;;;;;2.17;1.77;;;;;;;4.18;100.00;101484.34;5028315;28;20079;-51
2022/09/22 06:02:32;;;;;;;3.03;1.73;;;;;;;4.20;100.00;101484.22;5031700;28;20027;-52
2022/09/22 06:04:57;;;;;;;3.30;1.92;;;;;;;4.21;100.00;101492.00;5030010;28;20029;-53
2022/09/22 06:07:23;;;;;;;4.20;1.55;;;;;;;4.22;100.00;101485.75;5033974;28;20108;-51
2022/09/22 06:09:49;;;;;;;1.77;1.30;;;;;;;4.23;100.00;101484.78;5029815;28;20120;-51
2022/09/22 06:12:15;;;;;;;4.07;1.63;;;;;;;4.24;100.00;101483.03;5039276;28;20086;-52
2022/09/22 06:14:40;;;;;;;3.47;2.17;;;;;;;4.25;100.00;101484.69;5035580;28;20150;-49
2022/09/22 06:17:10;;;;;;;3.55;3.25;;;;;;;4.30;100.00;101479.88;5032081;28;20033;-49
2022/09/22 06:19:36;;;;;;;8.05;2.58;;;;;;;4.35;100.00;101480.34;5037941;28;20039;-50
2022/09/22 06:22:02;;;;;;;5.82;2.53;;;;;;;4.38;100.00;101469.59;5041229;28;20485;-51
2022/09/22 06:24:28;;;;;;;3.63;2.53;;;;;;;4.41;100.00;101474.56;5033182;28;20044;-49
2022/09/22 06:26:53;;;;;;;5.25;2.45;;;;;;;4.45;100.00;101469.94;5036636;28;20533;-50
2022/09/22 06:29:18;;;;;;;2.38;1.40;;;;;;;4.48;100.00;101475.75;5026496;28;20123;-50
2022/09/22 06:31:44;;;;;;;4.95;2.47;;;;;;;4.55;100.00;101469.03;5025174;28;20052;-50
2022/09/22 06:34:10;;;;;;;6.85;3.28;;;;;;;4.63;100.00;101467.56;5031579;28;20028;-50
2022/09/22 06:36:36;;;;;;;5.45;2.42;;;;;;;4.69;100.00;101464.41;5031546;28;20044;-49
2022/09/22 06:39:03;;;;;;;4.05;2.95;;;;;;;4.76;100.00;101465.56;5035890;28;20052;-54
2022/09/22 06:41:31;;;;;;;7.05;3.00;;;;;;;4.85;100.00;101463.94;5039800;28;20025;-50
2022/09/22 06:43:56;;;;;;;6.05;3.03;;;;;;;4.89;100.00;101468.81;5043073;28;20453;-49
2022/09/22 06:46:25;;;;;;;3.20;2.78;;;;;;;4.94;100.00;101471.91;5034695;28;20029;-52
2022/09/22 06:48:52;;;;;;;4.70;3.33;;;;;;;4.98;100.00;101465.44;5037207;28;20029;-53
2022/09/22 06:51:18;;;;;;;7.60;2.70;;;;;;;5.09;100.00;101474.19;5041893;28;20033;-55
2022/09/22 06:53:44;;;;;;;8.45;3.42;;;;;;;5.19;100.00;101473.28;5029954;28;20040;-54
2022/09/22 06:56:09;;;;;;;7.28;4.57;;;;;;;5.29;100.00;101470.66;5035506;28;20025;-55
2022/09/22 06:58:34;;;;;;;6.93;3.45;;;;;;;5.37;100.00;101473.50;5030696;28;20040;-52
2022/09/22 07:01:04;;;;;;;5.05;3.33;;;;;;;5.46;100.00;101474.47;5032782;28;20101;-51
2022/09/22 07:03:32;;;;;;;9.77;4.07;;;;;;;5.57;100.00;101478.81;5032864;28;20037;-55
2022/09/22 07:06:02;;;;;;;6.30;3.67;;;;;;;5.68;100.00;101479.53;5040677;28;20052;-53
2022/09/22 07:08:30;;;;;;;9.95;3.25;;;;;;;5.79;100.00;101485.66;5035379;28;20021;-50
2022/09/22 07:10:58;;;;;;;8.55;3.78;;;;;;;5.90;100.00;101483.72;5034370;28;20044;-52
2022/09/22 07:13:28;;;;;;;4.07;2.75;;;;;;;6.01;100.00;101489.88;5036024;28;20042;-50
2022/09/22 07:15:59;;;;;;;4.82;2.92;;;;;;;6.14;100.00;101479.91;5034084;28;20083;-49
2022/09/22 07:18:24;;;;;;;5.25;3.35;;;;;;;6.25;100.00;101481.59;5035310;28;20078;-49
2022/09/22 07:20:49;;;;;;;7.55;3.90;;;;;;;6.37;100.00;101471.75;5035486;28;20029;-49
2022/09/22 07:23:20;;;;;;;5.95;3.92;;;;;;;6.49;100.00;101471.47;5040844;28;20046;-49
2022/09/22 07:25:59;;;;;;;5.72;3.25;;;;;;;6.64;100.00;101469.22;5029043;28;20087;-52
2022/09/22 07:28:27;;;;;;;8.10;4.00;;;;;;;6.82;100.00;101468.50;5045818;28;20036;-52
2022/09/22 07:30:56;;;;;;;6.57;4.40;;;;;;;7.01;100.00;101465.81;5038871;28;20506;-50
2022/09/22 07:33:22;;;;;;;6.32;3.67;;;;;;;7.21;100.00;101456.84;5042986;28;20032;-51
2022/09/22 07:35:57;;;;;;;3.58;3.20;;;;;;;7.39;100.00;101458.72;5042375;28;20032;-52
2022/09/22 07:38:28;;;;;;;6.63;4.70;;;;;;;7.55;100.00;101453.63;5043458;28;20036;-54
2022/09/22 07:40:54;;;;;;;5.10;3.83;;;;;;;7.67;100.00;101448.13;5045093;28;20033;-52
2022/09/22 07:43:19;;;;;;;6.35;4.75;;;;;;;7.79;100.00;101442.50;5038351;28;20040;-51
2022/09/22 07:45:56;;;;;;;6.15;4.10;;;;;;;7.95;100.00;101435.72;5042831;28;20052;-53
2022/09/22 07:48:35;;;;;;;4.65;4.05;;;;;;;8.14;100.00;101437.41;5043686;28;20040;-48
2022/09/22 07:51:07;;;;;;;5.18;4.05;;;;;;;8.33;100.00;101434.59;5037745;28;20068;-55
2022/09/22 07:53:32;;;;;;;6.55;3.78;;;;;;;8.56;100.00;101434.13;5046083;28;20525;-55
2022/09/22 07:56:03;;;;;;;4.85;3.97;;;;;;;8.78;100.00;101438.91;5039801;28;20125;-54
2022/09/22 07:58:29;;;;;;;9.05;4.68;;;;;;;8.95;100.00;101438.00;5040081;28;20322;-54
2022/09/22 08:00:55;;;;;;;8.10;4.72;;;;;;;9.20;100.00;101435.50;5047191;28;20028;-54
2022/09/22 08:03:20;;;;;;;8.40;5.28;;;;;;;9.38;100.00;101428.28;5039408;28;20029;-56
2022/09/22 08:05:48;;;;;;;6.45;4.80;;;;;;;9.55;100.00;101428.34;5045639;28;20037;-51
2022/09/22 08:08:14;;;;;;;6.43;4.32;;;;;;;9.76;100.00;101433.22;5031635;28;20620;-55
2022/09/22 08:10:39;;;;;;;6.72;4.50;;;;;;;9.95;100.00;101426.78;5046238;28;20107;-54
2022/09/22 08:13:04;;;;;;;9.43;5.82;;;;;;;10.16;100.00;101421.81;5038194;28;20057;-55
2022/09/22 08:15:30;;;;;;;7.63;5.55;;;;;;;10.32;100.00;101418.38;5033032;28;20029;-49
2022/09/22 08:18:02;;;;;;;6.25;4.57;;;;;;;10.53;100.00;101420.50;5044124;28;20538;-52
2022/09/22 08:20:28;;;;;;;11.57;4.85;;;;;;;10.79;100.00;101420.31;5043605;28;20493;-51
2022/09/22 08:22:56;;;;;;;4.93;3.58;;;;;;;11.23;100.00;101419.84;5038995;28;20045;-51
2022/09/22 08:25:24;;;;;;;4.35;3.88;;;;;;;11.61;100.00;101411.19;5045236;28;20108;-49
2022/09/22 08:27:49;;;;;;;5.50;3.97;;;;;;;11.92;100.00;101411.19;5046404;28;20032;-49
2022/09/22 08:30:16;;;;;;;5.28;3.53;;;;;;;12.14;100.00;101405.03;5041707;28;20037;-50
2022/09/22 08:32:41;;;;;;;7.10;3.60;;;;;;;12.26;100.00;101402.75;5042918;28;20032;-54
2022/09/22 08:35:07;;;;;;;3.55;2.42;;;;;;;12.42;100.00;101402.63;5048878;28;20047;-51
2022/09/22 08:37:33;;;;;;;3.10;2.80;;;;;;;12.94;100.00;101400.94;5039204;28;20031;-49
2022/09/22 08:39:58;;;;;;;2.75;2.47;;;;;;;13.17;100.00;101398.16;5044443;28;20037;-52
2022/09/22 08:42:27;;;;;;;4.22;2.97;;;;;;;13.24;100.00;101399.06;5042234;28;20021;-51
2022/09/22 08:45:11;;;;;;;5.55;2.40;;;;;;;13.30;100.00;101400.19;5040081;28;20026;-54
2022/09/22 08:53:34;;;;;;;2.42;2.13;;;;;;;13.48;100.00;101394.47;5043521;28;20045;-53
2022/09/22 08:56:13;;;;;;;3.05;1.67;;;;;;;13.55;100.00;101398.00;5039530;28;20037;-54
2022/09/22 08:58:54;;;;;;;2.50;2.30;;;;;;;13.64;100.00;101394.22;5038222;28;20029;-53
2022/09/22 09:01:50;;;;;;;3.78;2.53;;;;;;;13.68;100.00;101390.19;5038316;28;20028;-54
2022/09/22 09:04:18;;;;;;;3.67;3.03;;;;;;;13.82;100.00;101387.63;5036980;28;20049;-53
2022/09/22 09:07:06;;;;;;;2.25;2.15;;;;;;;13.93;100.00;101387.13;5036637;28;20421;-54
2022/09/22 09:09:52;;;;;;;5.57;3.75;;;;;;;14.11;100.00;101376.00;5038453;28;20035;-53
2022/09/22 09:12:46;;;;;;;4.63;3.42;;;;;;;14.17;100.00;101370.72;5037591;28;20026;-53
2022/09/22 09:15:46;;;;;;;6.53;3.83;;;;;;;14.31;100.00;101374.31;5041309;28;20064;-53
2022/09/22 09:18:19;;;;;;;6.60;3.33;;;;;;;14.49;100.00;101362.34;5036836;28;20083;-53
2022/09/22 09:20:47;;;;;;;9.60;3.15;;;;;;;14.63;100.00;101357.94;5035346;28;20079;-55
2022/09/22 09:23:19;;;;;;;2.80;2.47;;;;;;;14.82;100.00;101367.91;5038002;28;20498;-51
2022/09/22 09:25:51;;;;;;;4.78;3.00;;;;;;;15.07;100.00;101362.88;5044057;28;20033;-52
2022/09/22 09:28:22;;;;;;;4.05;2.97;;;;;;;15.22;100.00;101358.22;5030834;28;20075;-55
2022/09/22 09:30:51;;;;;;;3.92;2.47;;;;;;;15.38;100.00;101350.84;5040429;28;20430;-55
2022/09/22 09:33:32;;;;;;;2.13;1.83;;;;;;;15.42;100.00;101352.13;5039318;28;20032;-54
2022/09/22 09:35:57;;;;;;;4.28;3.38;;;;;;;15.45;100.00;101349.03;5043299;28;20025;-54
2022/09/22 09:38:30;;;;;;;4.50;2.70;;;;;;;15.45;100.00;101352.53;5033195;28;20040;-54
2022/09/22 09:41:10;;;;;;;2.28;2.08;;;;;;;15.57;100.00;101338.59;5045425;28;20272;-55
2022/09/22 09:43:36;;;;;;;4.28;2.83;;;;;;;15.72;100.00;101341.94;5037484;28;20029;-55
2022/09/22 09:46:01;;;;;;;3.53;2.67;;;;;;;15.86;100.00;101340.91;5040370;28;20083;-53
2022/09/22 09:48:27;;;;;;;2.05;1.83;;;;;;;15.94;100.00;101331.84;5036787;28;20028;-53
2022/09/22 09:50:52;;;;;;;3.05;2.08;;;;;;;15.92;100.00;101318.66;5039940;28;20451;-54
2022/09/22 09:53:42;;;;;;;3.15;2.55;;;;;;;15.93;100.00;101311.50;5034048;28;20029;-52
2022/09/22 09:56:20;;;;;;;5.85;2.50;;;;;;;16.01;100.00;101310.47;5038433;28;20033;-54
2022/09/22 10:01:49;;;;;;;2.83;2.15;;;;;;;16.29;100.00;101302.19;5039976;28;20040;-55
2022/09/22 10:04:25;;;;;;;3.70;3.08;;;;;;;16.50;100.00;101304.63;5034039;28;20425;-54
2022/09/22 10:06:50;;;;;;;3.20;1.85;;;;;;;16.67;100.00;101318.34;5034315;28;20112;-54
2022/09/22 10:09:27;;;;;;;2.00;1.90;;;;;;;16.74;100.00;101313.81;5046433;28;20128;-49
2022/09/22 10:11:58;;;;;;;3.03;1.80;;;;;;;16.58;100.00;101311.59;5043598;28;20075;-53
2022/09/22 10:14:26;;;;;;;2.47;1.73;;;;;;;16.53;100.00;101314.09;5049912;28;20094;-56
2022/09/22 10:16:52;;;;;;;3.03;1.73;;;;;;;16.58;100.00;101300.88;5045312;28;20154;-53
2022/09/22 10:19:35;;;;;;;2.40;1.23;;;;;;;16.72;100.00;101289.09;5041738;28;20036;-56
2022/09/22 10:22:26;;;;;;;3.75;1.83;;;;;;;16.97;100.00;101280.38;5041901;28;20025;-51
2022/09/22 10:25:02;;;;;;;2.67;1.40;;;;;;;17.21;100.00;101273.41;5045630;28;20033;-57
2022/09/22 10:27:30;;;;;;;1.23;1.23;;;;;;;17.30;100.00;101260.59;5038528;28;20070;-54
2022/09/22 10:30:20;;;;;;;2.45;2.13;;;;;;;17.37;100.00;101253.31;5051548;28;20036;-53
2022/09/22 10:33:05;;;;;;;1.63;0.90;;;;;;;17.44;100.00;101257.59;5043320;28;20453;-53
2022/09/22 10:35:32;;;;;;;1.80;0.88;;;;;;;17.61;100.00;101252.53;5039506;28;20041;-52
2022/09/22 10:38:08;;;;;;;2.97;0.82;;;;;;;17.53;100.00;101255.50;5038615;28;20164;-51
2022/09/22 10:40:37;;;;;;;2.42;0.60;;;;;;;17.34;100.00;101254.56;5047408;28;20052;-53
2022/09/22 10:43:21;;;;;;;3.65;1.83;;;;;;;17.48;100.00;101247.28;5034037;28;20026;-55
2022/09/22 10:46:10;;;;;;;2.05;1.05;;;;;;;17.47;100.00;101240.25;5037328;28;20037;-56
2022/09/22 10:48:44;;;;;;;1.27;0.30;;;;;;;17.33;100.00;101244.09;5036831;28;20906;-54
2022/09/22 10:51:43;;;;;;;2.45;0.40;;;;;;;17.16;100.00;101239.22;5046120;28;20021;-56
2022/09/22 10:54:40;;;;;;;1.20;0.50;;;;;;;17.40;100.00;101236.81;5049570;28;20082;-56
2022/09/22 10:57:33;;;;;;;0.32;0.05;;;;;;;17.93;100.00;101222.97;5049202;28;20371;-56
2022/09/22 11:00:13;;;;;;;0.10;0.10;;;;;;;18.20;100.00;101211.94;5043090;28;20048;-52
2022/09/22 11:02:54;;;;;;;1.35;0.77;;;;;;;18.03;100.00;101207.19;5036064;28;20025;-53
2022/09/22 11:14:09;;;;;;;0.55;0.03;;;;;;;19.08;100.00;101191.84;5037162;28;20111;-51
2022/09/22 11:17:02;;;;;;;0.10;0.00;;;;;;;19.30;100.00;101189.41;5043792;28;20044;-57
2022/09/22 11:19:46;;;;;;;0.95;0.30;;;;;;;19.43;100.00;101183.81;5034611;28;20044;-56
2022/09/22 11:22:36;;;;;;;0.32;0.32;;;;;;;19.63;100.00;101172.72;5034105;28;20034;-51
2022/09/22 11:25:13;;;;;;;1.65;0.10;;;;;;;19.49;100.00;101180.22;5037236;28;20025;-56
2022/09/22 11:27:59;;;;;;;0.73;0.20;;;;;;;19.10;100.00;101170.91;5036725;28;20032;-61
2022/09/22 11:30:28;;;;;;;0.55;0.20;;;;;;;18.70;100.00;101176.84;5042696;28;20039;-54
2022/09/22 11:33:06;;;;;;;0.93;0.10;;;;;;;18.34;100.00;101178.56;5039009;28;20029;-52
2022/09/22 11:35:50;;;;;;;0.32;0.17;;;;;;;18.32;100.00;101177.94;5046433;28;20040;-52
2022/09/22 11:38:54;;;;;;;0.50;0.20;;;;;;;18.29;100.00;101175.72;5041959;28;20078;-51
2022/09/22 11:41:29;;;;;;;1.75;0.45;;;;;;;18.36;100.00;101172.97;5042564;28;20029;-58
2022/09/22 11:44:17;;;;;;;0.40;0.20;;;;;;;18.39;100.00;101180.56;5037175;28;20091;-56
2022/09/22 11:47:10;;;;;;;1.20;0.20;;;;;;;18.20;100.00;101169.84;5033263;28;20032;-51
2022/09/22 11:49:54;;;;;;;0.85;0.10;;;;;;;18.19;100.00;101170.06;5043738;28;20529;-54
2022/09/22 11:52:27;;;;;;;0.85;0.15;;;;;;;18.18;100.00;101171.13;5044546;28;20116;-56
2022/09/22 11:55:05;;;;;;;0.85;0.52;;;;;;;18.23;100.00;101160.53;5040782;28;20171;-53
2022/09/22 11:57:35;;;;;;;0.38;0.30;;;;;;;18.57;100.00;101169.78;5044950;28;20056;-52